Aviation Digital Data Service (ADDS)

Output produced by METARs form (1841 UTC 05 March 2015)
found at http://aviationweather.gov/adds/metars/
 
KAUG 051720Z 0518/0618 33010G18KT P6SM SCT100 OVC200 
     FM060000 34006KT P6SM SCT200